Aérodrome :
LOGIN :

S'inscrire | Disclaimer

   EN    FR    IT 

 










Légende :    VFR   VFR Marginal   IFR   IFR Intensif   IFR Très Intensif
Visi : 
Plafond : 
>= 8 km
>= 3000ft
5 à 8 km
1000 à 3000 ft
1500m à 5 km
500 à 1000 ft
800 à 1500m
200 à 500 ft
< 800m
< 200 ft
Symboles :   Orages  Brouillard  Fortes neiges  Fortes précipitations  Vent > 20 kt
SIGMETs :   Divers  Orages  Givrage  Turbulence  Onde Orograph.  Cendres Volcan.






- Altitude de l'aérodrome : 27 ft
- Code IATA : PMI


LEPA - Palma de Mallorca

DERNIER METAR :
  • 201000Z 00000KT 9999 FEW020 15/06 Q1027 NOSIG

METARs EXPIRÉS :
  • 200930Z VRB01KT 9999 FEW020 13/06 Q1027 NOSIG
  • 200900Z 33001KT 9999 FEW020 11/05 Q1027 NOSIG
  • 200830Z VRB01KT 9999 FEW024 09/05 Q1027 NOSIG
  • 200800Z 00000KT 9999 FEW024 07/05 Q1027 NOSIG
  • 200730Z VRB02KT 9999 FEW024 05/04 Q1027 NOSIG

TAF TAF LEPA
Valide du 20 à 06h jusqu'au 21 à 06h UTC


200500Z 2006/2106 VRB03KT 9999 FEW020 TX16/2013Z TN03/2006Z
PROB40
TEMPO 2006/2008 2000 BR
BECMG 2010/2012 22010KT
BECMG 2018/2021 04005KT



MET'MAP, la Météo Aéronautique d'un coup d'oeil ! - Copyright ORBIFLY Décembre 2007 - Disclaimer

ORBIFLY MET'MAP TEAM :

Programmation & Développement : Alexandra Zaïnal
Sur une idée originale de : Baudouin d'Aumeries
Assistance à la programmation : Marc-Olivier Méhu
Soutien technique & logistique : Manuel Goepfert

Contact : metmap@orbifly.com




SOURCES & CREDITS :

   NOAA